Time;durP1;ratioP1;P1;durP2;ratioP2;P2;SDS_P1;SDS_P2;PMS_P1;PMS_P2;Temp;Humidity;BMP_temperature;BMP_pressure;BME280_temperature;BME280_humidity;BME280_pressure;Samples;Min_cycle;Max_cycle;Signal;HPM_P1;HPM_P2
2021/09/25 00:00:53;;;;;;;3.97;1.87;;;18.10;99.90;;;;;;5021878;28;20645;-90
2021/09/25 00:03:18;;;;;;;12.73;2.73;;;18.10;99.90;;;;;;5021539;28;20199;-89
2021/09/25 00:05:44;;;;;;;13.33;3.10;;;18.10;99.90;;;;;;5022528;28;20314;-91
2021/09/25 00:08:10;;;;;;;3.77;1.57;;;18.00;99.90;;;;;;4988576;28;20219;-89
2021/09/25 00:10:37;;;;;;;9.13;3.07;;;18.00;99.90;;;;;;5021158;28;20346;-90
2021/09/25 00:13:04;;;;;;;10.70;3.43;;;18.00;99.90;;;;;;5021825;28;20241;-90
2021/09/25 00:15:30;;;;;;;6.83;2.60;;;18.00;99.90;;;;;;5038909;28;20192;-89
2021/09/25 00:18:00;;;;;;;6.60;2.20;;;18.10;99.90;;;;;;5005192;28;21034;-90
2021/09/25 00:20:26;;;;;;;10.30;2.07;;;18.10;99.90;;;;;;5004829;28;20297;-90
2021/09/25 00:22:52;;;;;;;4.07;2.60;;;18.10;99.90;;;;;;5021491;28;20305;-89
2021/09/25 00:25:18;;;;;;;5.40;2.67;;;18.10;99.90;;;;;;5004979;28;20293;-90
2021/09/25 00:27:44;;;;;;;11.63;2.80;;;18.10;99.90;;;;;;5022924;28;21182;-88
2021/09/25 00:30:12;;;;;;;10.60;3.33;;;18.10;99.90;;;;;;5005007;28;20925;-89
2021/09/25 00:32:39;;;;;;;8.30;3.63;;;18.10;99.90;;;;;;4988416;28;20739;-88
2021/09/25 00:35:05;;;;;;;9.73;3.43;;;18.10;99.90;;;;;;5005514;28;20239;-90
2021/09/25 00:37:31;;;;;;;4.10;2.70;;;18.20;99.90;;;;;;5022421;28;20254;-89
2021/09/25 00:39:57;;;;;;;4.80;3.73;;;18.20;99.90;;;;;;5004625;28;20211;-91
2021/09/25 00:42:22;;;;;;;7.93;3.63;;;18.20;99.90;;;;;;4988887;28;20219;-91
2021/09/25 00:44:48;;;;;;;12.20;3.63;;;18.20;99.90;;;;;;5020461;28;20227;-90
2021/09/25 00:47:15;;;;;;;5.83;3.27;;;18.20;99.90;;;;;;5020064;28;20219;-90
2021/09/25 00:49:41;;;;;;;8.03;3.23;;;18.20;99.90;;;;;;5020821;28;20251;-90
2021/09/25 00:52:07;;;;;;;6.23;3.23;;;18.20;99.90;;;;;;5004051;28;20230;-90
2021/09/25 00:54:33;;;;;;;4.83;2.57;;;18.20;99.90;;;;;;5021785;28;20242;-91
2021/09/25 00:56:59;;;;;;;5.30;3.53;;;18.20;99.90;;;;;;5038024;28;20219;-89
2021/09/25 00:59:26;;;;;;;4.77;2.67;;;18.20;99.90;;;;;;5003726;28;20290;-90
2021/09/25 01:01:51;;;;;;;4.90;2.57;;;18.20;99.90;;;;;;5038455;28;20314;-88
2021/09/25 01:04:18;;;;;;;8.93;3.23;;;18.20;99.90;;;;;;5036501;28;20319;-89
2021/09/25 01:06:44;;;;;;;5.53;3.40;;;18.20;99.90;;;;;;5037675;28;20482;-90
2021/09/25 01:09:09;;;;;;;7.80;4.57;;;18.20;99.90;;;;;;4988407;28;20298;-90
2021/09/25 01:11:36;;;;;;;7.23;2.90;;;18.20;99.90;;;;;;5020437;28;20225;-89
2021/09/25 01:14:02;;;;;;;11.23;4.43;;;18.20;99.90;;;;;;5003683;28;21071;-89
2021/09/25 01:16:28;;;;;;;2.80;1.97;;;18.20;99.90;;;;;;5037378;28;20211;-89
2021/09/25 01:18:54;;;;;;;6.47;2.73;;;18.20;99.90;;;;;;5037396;28;20229;-89
2021/09/25 01:21:20;;;;;;;11.97;3.30;;;18.20;99.90;;;;;;4995241;28;20241;-88
2021/09/25 01:23:46;;;;;;;9.40;3.33;;;18.20;99.90;;;;;;5004450;28;20278;-89
2021/09/25 01:26:12;;;;;;;10.30;2.50;;;18.20;99.90;;;;;;5020599;28;20800;-90
2021/09/25 01:28:40;;;;;;;13.47;4.30;;;18.20;99.90;;;;;;5004341;28;20218;-88
2021/09/25 01:31:08;;;;;;;11.27;3.93;;;18.20;99.90;;;;;;5003703;28;20234;-88
2021/09/25 01:33:42;;;;;;;7.97;3.00;;;18.20;99.90;;;;;;5003518;28;20245;-88
2021/09/25 01:36:09;;;;;;;7.27;4.00;;;18.20;99.90;;;;;;5035576;28;20313;-90
2021/09/25 01:38:36;;;;;;;8.77;3.23;;;18.30;99.90;;;;;;5036920;28;20573;-88
2021/09/25 01:41:02;;;;;;;17.90;3.80;;;18.30;99.90;;;;;;5003176;28;20218;-89
2021/09/25 01:43:29;;;;;;;8.50;3.10;;;18.20;99.90;;;;;;5011581;28;20223;-91
2021/09/25 01:45:56;;;;;;;9.07;3.30;;;18.20;99.90;;;;;;5035768;28;20190;-89
2021/09/25 01:48:22;;;;;;;9.80;3.33;;;18.20;99.90;;;;;;5021193;28;20597;-90
2021/09/25 01:50:50;;;;;;;4.20;2.93;;;18.20;99.90;;;;;;5019411;28;20277;-90
2021/09/25 01:53:16;;;;;;;11.23;3.27;;;18.20;99.90;;;;;;5020730;28;20251;-90
2021/09/25 01:55:42;;;;;;;9.77;3.07;;;18.20;99.90;;;;;;5035873;28;20242;-89
2021/09/25 01:58:09;;;;;;;8.23;3.20;;;18.30;99.90;;;;;;5020151;28;20388;-90
2021/09/25 02:00:35;;;;;;;10.63;3.03;;;18.20;99.90;;;;;;5004892;28;20188;-90
2021/09/25 02:03:02;;;;;;;9.83;3.37;;;18.20;99.90;;;;;;4994590;28;20257;-90
2021/09/25 02:05:27;;;;;;;10.23;2.90;;;18.30;99.90;;;;;;5036085;28;20215;-90
2021/09/25 02:07:53;;;;;;;4.63;2.67;;;18.20;99.90;;;;;;5020102;28;20219;-90
2021/09/25 02:10:20;;;;;;;6.80;3.43;;;18.20;99.90;;;;;;4985587;28;20705;-90
2021/09/25 02:12:46;;;;;;;7.57;3.77;;;18.20;99.90;;;;;;5021170;28;21129;-90
2021/09/25 02:15:12;;;;;;;6.93;3.27;;;18.20;99.90;;;;;;4987453;28;20211;-90
2021/09/25 02:17:39;;;;;;;5.60;2.67;;;18.20;99.90;;;;;;5035485;28;20223;-90
2021/09/25 02:20:06;;;;;;;11.53;3.33;;;18.20;99.90;;;;;;5004026;28;20238;-90
2021/09/25 02:22:32;;;;;;;7.43;2.90;;;18.10;99.90;;;;;;5036504;28;20219;-90
2021/09/25 02:24:58;;;;;;;6.97;3.37;;;18.10;99.90;;;;;;5003022;28;20191;-90
2021/09/25 02:27:24;;;;;;;7.57;4.00;;;18.10;99.90;;;;;;5020374;28;20229;-90
2021/09/25 02:29:49;;;;;;;7.23;2.97;;;18.10;99.90;;;;;;4995470;28;20889;-89
2021/09/25 02:32:15;;;;;;;4.40;3.17;;;18.10;99.90;;;;;;5019032;28;20330;-90
2021/09/25 02:34:41;;;;;;;13.63;3.67;;;18.00;99.90;;;;;;5017047;28;20598;-89
2021/09/25 02:37:07;;;;;;;16.63;4.37;;;18.00;99.90;;;;;;4985985;28;20281;-90
2021/09/25 02:39:35;;;;;;;7.67;3.53;;;17.90;99.90;;;;;;5019420;28;20389;-88
2021/09/25 02:42:00;;;;;;;14.13;3.37;;;17.90;99.90;;;;;;5018560;28;20223;-91
2021/09/25 02:44:27;;;;;;;7.60;3.23;;;17.90;99.90;;;;;;5002828;28;20619;-90
2021/09/25 02:46:53;;;;;;;6.10;3.57;;;17.80;99.90;;;;;;4986747;28;20310;-90
2021/09/25 02:49:20;;;;;;;5.33;3.77;;;17.80;99.90;;;;;;5022472;28;20245;-89
2021/09/25 02:51:47;;;;;;;9.57;2.70;;;17.80;99.90;;;;;;5005764;28;20226;-88
2021/09/25 02:54:12;;;;;;;8.90;3.90;;;17.70;99.90;;;;;;5005362;28;20238;-90
2021/09/25 02:56:38;;;;;;;7.10;3.07;;;17.70;99.90;;;;;;5002863;28;20232;-90
2021/09/25 02:59:05;;;;;;;17.57;3.83;;;17.70;99.90;;;;;;5002647;28;20219;-91
2021/09/25 03:01:31;;;;;;;8.10;3.17;;;17.60;99.90;;;;;;5017981;28;20250;-90
2021/09/25 03:03:57;;;;;;;5.80;2.87;;;17.60;99.90;;;;;;4995784;28;20286;-89
2021/09/25 03:06:24;;;;;;;8.33;2.97;;;17.50;99.90;;;;;;4990143;28;20290;-90
2021/09/25 03:08:50;;;;;;;6.60;3.00;;;17.50;99.90;;;;;;5007826;28;20220;-89
2021/09/25 03:11:16;;;;;;;5.23;3.20;;;17.50;99.90;;;;;;5039046;28;20758;-89
2021/09/25 03:13:42;;;;;;;4.40;2.77;;;17.40;99.90;;;;;;4990762;28;20246;-89
2021/09/25 03:16:08;;;;;;;3.37;2.63;;;17.40;99.90;;;;;;4988778;28;20223;-89
2021/09/25 03:18:34;;;;;;;9.67;2.70;;;17.40;99.90;;;;;;4989945;28;20192;-89
2021/09/25 03:21:00;;;;;;;13.67;2.93;;;17.30;99.90;;;;;;5005677;28;20272;-89
2021/09/25 03:23:25;;;;;;;8.60;3.63;;;17.30;99.90;;;;;;5005983;28;20223;-91
2021/09/25 03:25:51;;;;;;;8.03;3.00;;;17.30;99.90;;;;;;5022072;28;20242;-90
2021/09/25 03:28:17;;;;;;;4.23;2.70;;;17.20;99.90;;;;;;5005896;28;20710;-90
2021/09/25 03:30:43;;;;;;;5.30;2.67;;;17.20;99.90;;;;;;5023426;28;21009;-89
2021/09/25 03:33:09;;;;;;;5.90;2.97;;;17.20;99.90;;;;;;5006752;28;20273;-90
2021/09/25 03:35:35;;;;;;;11.10;2.93;;;17.20;99.90;;;;;;5005808;28;20617;-90
2021/09/25 03:38:01;;;;;;;5.03;3.40;;;17.20;99.90;;;;;;5024154;28;20336;-90
2021/09/25 03:40:28;;;;;;;5.30;2.93;;;17.20;99.90;;;;;;5039246;28;20211;-89
2021/09/25 03:42:53;;;;;;;6.17;3.57;;;17.20;99.90;;;;;;5022184;28;20199;-89
2021/09/25 03:45:19;;;;;;;9.33;3.23;;;17.10;99.90;;;;;;5023268;28;20191;-89
2021/09/25 03:47:45;;;;;;;5.73;2.53;;;17.10;99.90;;;;;;5004449;28;20215;-89
2021/09/25 03:50:13;;;;;;;5.57;2.80;;;17.10;99.90;;;;;;5022693;28;20223;-90
2021/09/25 03:52:39;;;;;;;5.73;2.73;;;17.00;99.90;;;;;;5021539;28;20239;-90
2021/09/25 03:55:06;;;;;;;13.57;3.20;;;17.00;99.90;;;;;;4997726;28;20226;-89
2021/09/25 03:57:33;;;;;;;4.73;2.53;;;17.00;99.90;;;;;;5022286;28;20278;-88
2021/09/25 03:59:59;;;;;;;8.53;2.93;;;17.00;99.90;;;;;;5022711;28;20231;-90
2021/09/25 04:02:25;;;;;;;8.57;3.40;;;16.90;99.90;;;;;;5006644;28;20228;-89
2021/09/25 04:04:50;;;;;;;10.20;3.77;;;16.90;99.90;;;;;;4990591;28;20249;-90
2021/09/25 04:07:16;;;;;;;4.93;3.63;;;16.90;99.90;;;;;;5021639;28;20668;-90
2021/09/25 04:09:42;;;;;;;12.47;3.43;;;16.90;99.90;;;;;;5021916;28;20195;-90
2021/09/25 04:12:08;;;;;;;6.03;3.60;;;16.80;99.90;;;;;;4988480;28;20219;-90
2021/09/25 04:14:34;;;;;;;4.13;2.80;;;16.80;99.90;;;;;;5037680;28;20326;-90
2021/09/25 04:16:59;;;;;;;7.03;3.03;;;16.80;99.90;;;;;;5021268;28;20250;-91
2021/09/25 04:19:26;;;;;;;4.73;3.43;;;16.80;99.90;;;;;;5005367;28;20717;-89
2021/09/25 04:21:53;;;;;;;7.73;4.20;;;16.80;99.90;;;;;;5020623;28;20219;-90
2021/09/25 04:24:19;;;;;;;8.87;3.30;;;16.80;99.90;;;;;;5038998;28;20199;-90
2021/09/25 04:26:44;;;;;;;6.77;3.47;;;16.80;99.90;;;;;;5037514;28;20219;-90
2021/09/25 04:29:11;;;;;;;13.97;4.33;;;16.70;99.90;;;;;;4995924;28;20227;-88
2021/09/25 04:31:37;;;;;;;8.43;4.70;;;16.70;99.90;;;;;;5020108;28;20273;-90
2021/09/25 04:34:04;;;;;;;6.20;3.67;;;16.70;99.90;;;;;;5004727;28;21141;-90
2021/09/25 04:36:31;;;;;;;7.37;3.40;;;16.70;99.90;;;;;;5005545;28;20223;-90
2021/09/25 04:38:57;;;;;;;9.47;3.40;;;16.70;99.90;;;;;;5003094;28;20226;-90
2021/09/25 04:41:23;;;;;;;8.17;3.07;;;16.80;99.90;;;;;;5002349;28;20243;-90
2021/09/25 04:43:50;;;;;;;6.70;3.37;;;16.80;99.90;;;;;;5001347;28;20334;-90
2021/09/25 04:46:15;;;;;;;9.60;4.00;;;16.80;99.90;;;;;;5008621;28;20234;-90
2021/09/25 04:48:41;;;;;;;6.53;4.03;;;16.80;99.90;;;;;;4999060;28;20623;-91
2021/09/25 04:51:07;;;;;;;4.40;3.27;;;16.70;99.90;;;;;;5016661;28;20215;-91
2021/09/25 04:53:33;;;;;;;6.63;4.20;;;16.80;99.90;;;;;;5019693;28;20255;-89
2021/09/25 04:55:59;;;;;;;8.70;3.70;;;16.80;99.90;;;;;;5021083;28;20583;-90
2021/09/25 04:58:29;;;;;;;20.43;4.23;;;16.80;99.90;;;;;;5002298;28;20234;-90
2021/09/25 05:00:58;;;;;;;8.77;4.10;;;16.90;99.90;;;;;;5010786;28;20278;-90
2021/09/25 05:03:24;;;;;;;5.97;3.63;;;16.80;99.90;;;;;;5006048;28;20222;-90
2021/09/25 05:05:51;;;;;;;5.97;3.57;;;16.90;99.90;;;;;;5003995;28;20253;-90
2021/09/25 05:08:17;;;;;;;6.23;4.03;;;16.90;99.90;;;;;;5020560;28;20215;-87
2021/09/25 05:10:43;;;;;;;8.27;4.23;;;16.90;99.90;;;;;;4996903;28;20277;-90
2021/09/25 05:13:08;;;;;;;5.00;3.77;;;17.00;99.90;;;;;;5035198;28;20281;-90
2021/09/25 05:15:34;;;;;;;7.33;3.07;;;16.90;99.90;;;;;;4986238;28;20661;-88
2021/09/25 05:18:00;;;;;;;5.50;3.20;;;16.90;99.90;;;;;;4984505;28;20245;-90
2021/09/25 05:20:26;;;;;;;9.90;3.50;;;17.00;99.90;;;;;;5019254;28;20222;-89
2021/09/25 05:22:52;;;;;;;7.57;3.33;;;17.00;99.90;;;;;;5018398;28;20227;-90
2021/09/25 05:25:18;;;;;;;4.97;3.63;;;17.00;99.90;;;;;;4993458;28;20215;-90
2021/09/25 05:27:44;;;;;;;6.63;4.10;;;17.00;99.90;;;;;;5003062;28;20201;-88
2021/09/25 05:30:11;;;;;;;7.77;3.70;;;17.00;99.90;;;;;;4987515;28;20238;-88
2021/09/25 05:32:37;;;;;;;6.17;3.60;;;17.10;99.90;;;;;;5003965;28;20269;-90
2021/09/25 05:35:04;;;;;;;6.07;3.77;;;17.10;99.90;;;;;;4987083;28;20774;-89
2021/09/25 05:37:30;;;;;;;9.37;3.77;;;17.10;99.90;;;;;;5020343;28;20234;-90
2021/09/25 05:39:56;;;;;;;8.07;3.70;;;17.00;99.90;;;;;;5020426;28;20222;-90
2021/09/25 05:42:23;;;;;;;7.73;3.47;;;17.10;99.90;;;;;;4987184;28;20191;-89
2021/09/25 05:44:50;;;;;;;6.87;3.63;;;17.00;99.90;;;;;;5015050;28;20299;-90
2021/09/25 05:47:16;;;;;;;7.90;4.00;;;17.10;99.90;;;;;;5019430;28;20675;-89
2021/09/25 05:49:44;;;;;;;6.17;3.90;;;17.10;99.90;;;;;;5014206;28;20235;-89
2021/09/25 05:52:10;;;;;;;10.10;4.07;;;17.10;99.90;;;;;;5037296;28;20576;-89
2021/09/25 05:54:37;;;;;;;10.47;4.60;;;17.10;99.90;;;;;;5003791;28;20249;-89
2021/09/25 05:57:04;;;;;;;6.73;3.63;;;17.10;99.90;;;;;;5036508;28;20223;-89
2021/09/25 05:59:29;;;;;;;13.33;4.63;;;17.10;99.90;;;;;;5020395;28;20753;-89
2021/09/25 06:01:55;;;;;;;5.60;3.87;;;17.10;99.90;;;;;;5020098;28;20696;-91
2021/09/25 06:04:21;;;;;;;12.53;4.70;;;17.10;99.90;;;;;;5021440;28;20261;-91
2021/09/25 06:06:46;;;;;;;5.37;3.60;;;17.20;99.90;;;;;;4987353;28;20206;-90
2021/09/25 06:09:12;;;;;;;8.13;4.00;;;17.20;99.90;;;;;;5021649;28;20246;-90
2021/09/25 06:11:38;;;;;;;8.80;3.90;;;17.20;99.90;;;;;;5024326;28;20207;-90
2021/09/25 06:14:03;;;;;;;5.03;3.07;;;17.30;99.90;;;;;;4974360;28;20239;-91
2021/09/25 06:16:29;;;;;;;9.83;4.57;;;17.20;99.90;;;;;;5023257;28;20225;-90
2021/09/25 06:18:55;;;;;;;11.47;3.33;;;17.20;99.90;;;;;;5004960;28;20207;-89
2021/09/25 06:21:21;;;;;;;8.57;3.47;;;17.30;99.90;;;;;;5007980;28;20218;-91
2021/09/25 06:23:47;;;;;;;10.20;3.20;;;17.30;99.90;;;;;;5005866;28;20402;-87
2021/09/25 06:26:13;;;;;;;7.73;3.10;;;17.40;99.90;;;;;;4998708;28;21043;-91
2021/09/25 06:28:39;;;;;;;9.07;3.00;;;17.40;99.90;;;;;;5022289;28;20215;-88
2021/09/25 06:31:05;;;;;;;4.17;3.03;;;17.50;99.90;;;;;;5038157;28;20192;-88
2021/09/25 06:33:31;;;;;;;11.63;3.60;;;17.60;99.90;;;;;;5022457;28;21029;-89
2021/09/25 06:35:56;;;;;;;8.10;3.47;;;17.70;99.90;;;;;;4991167;28;20219;-89
2021/09/25 06:38:23;;;;;;;7.30;3.30;;;17.80;99.90;;;;;;5005438;28;20223;-90
2021/09/25 06:40:49;;;;;;;5.70;2.90;;;17.90;99.90;;;;;;5022385;28;20685;-89
2021/09/25 06:43:14;;;;;;;6.63;2.90;;;17.90;99.90;;;;;;5006026;28;20740;-90
2021/09/25 06:45:40;;;;;;;4.80;3.20;;;17.90;99.90;;;;;;4989762;28;20241;-90
2021/09/25 06:48:07;;;;;;;6.20;3.40;;;18.00;99.90;;;;;;5021442;28;20250;-88
2021/09/25 06:50:33;;;;;;;7.07;3.57;;;18.20;99.90;;;;;;5005824;28;20207;-88
2021/09/25 06:52:59;;;;;;;4.20;2.87;;;18.30;99.90;;;;;;4989184;28;20669;-91
2021/09/25 06:55:25;;;;;;;6.80;2.90;;;18.30;99.90;;;;;;5021571;28;20233;-90
2021/09/25 06:57:51;;;;;;;6.97;3.37;;;18.40;99.90;;;;;;5038682;28;20195;-90
2021/09/25 07:00:17;;;;;;;4.90;2.70;;;18.40;99.90;;;;;;5023693;28;20250;-93
2021/09/25 07:02:43;;;;;;;5.93;3.37;;;18.50;99.90;;;;;;5008319;28;20251;-89
2021/09/25 07:05:10;;;;;;;5.67;2.60;;;18.50;99.90;;;;;;4990207;28;20281;-92
2021/09/25 07:07:36;;;;;;;3.33;2.47;;;18.70;99.90;;;;;;5005476;28;20219;-92
2021/09/25 07:10:03;;;;;;;6.37;3.17;;;18.80;99.90;;;;;;5021541;28;20304;-94
2021/09/25 07:12:29;;;;;;;4.47;2.77;;;18.90;99.90;;;;;;5005046;28;20191;-93
2021/09/25 07:14:56;;;;;;;7.10;3.00;;;19.00;99.90;;;;;;5022071;28;20218;-92
2021/09/25 07:17:24;;;;;;;6.07;2.53;;;19.10;99.90;;;;;;5021086;28;20222;-92
2021/09/25 07:19:50;;;;;;;4.03;2.80;;;19.10;99.90;;;;;;5013695;28;20304;-94
2021/09/25 07:22:16;;;;;;;5.43;2.47;;;19.30;99.90;;;;;;5021779;28;20615;-96
2021/09/25 07:25:14;;;;;;;4.43;2.67;;;19.20;99.90;;;;;;5005604;28;20192;-96
2021/09/25 07:27:40;;;;;;;3.67;2.90;;;19.40;99.90;;;;;;5001204;28;20229;-95
2021/09/25 07:30:09;;;;;;;5.07;2.43;;;19.40;99.90;;;;;;4981696;28;20716;-95
2021/09/25 07:32:44;;;;;;;6.77;3.27;;;19.50;99.90;;;;;;5035369;28;20230;-96
2021/09/25 07:35:13;;;;;;;6.80;2.77;;;19.60;99.90;;;;;;5037734;28;20262;-96
2021/09/25 07:37:40;;;;;;;4.13;2.60;;;19.70;99.90;;;;;;5021713;28;20272;-96
2021/09/25 07:40:13;;;;;;;5.43;2.70;;;19.70;99.90;;;;;;5003778;28;20207;-96
2021/09/25 07:42:41;;;;;;;4.30;2.53;;;19.80;99.90;;;;;;5014683;28;20187;-96
2021/09/25 07:45:08;;;;;;;5.10;2.57;;;19.80;99.90;;;;;;4989366;28;20219;-95
2021/09/25 07:47:41;;;;;;;11.07;3.10;;;19.80;99.90;;;;;;5036430;28;20242;-96
2021/09/25 07:50:09;;;;;;;4.40;2.47;;;20.00;99.90;;;;;;5038057;28;20250;-95
2021/09/25 07:52:39;;;;;;;3.20;2.50;;;19.90;99.90;;;;;;5004397;28;20227;-96
2021/09/25 07:55:06;;;;;;;4.33;2.30;;;19.80;99.90;;;;;;5036872;28;20202;-95
2021/09/25 07:57:32;;;;;;;5.67;2.53;;;19.90;99.90;;;;;;5005285;28;20815;-93
2021/09/25 07:59:58;;;;;;;8.20;2.80;;;19.90;99.90;;;;;;5021220;28;20259;-94
2021/09/25 08:02:24;;;;;;;5.10;2.43;;;20.00;99.90;;;;;;5037513;28;20700;-94
2021/09/25 08:04:50;;;;;;;3.43;2.77;;;20.00;99.90;;;;;;5003396;28;20716;-96
2021/09/25 08:07:16;;;;;;;4.60;2.37;;;19.80;99.90;;;;;;5020496;28;21113;-96
2021/09/25 08:09:41;;;;;;;4.03;2.77;;;19.80;99.90;;;;;;5037269;28;20187;-95
2021/09/25 08:12:08;;;;;;;10.13;2.97;;;19.60;99.90;;;;;;5037963;28;21020;-96
2021/09/25 08:14:33;;;;;;;4.63;3.13;;;19.70;99.90;;;;;;5022582;28;20242;-96
2021/09/25 08:16:59;;;;;;;3.27;2.60;;;19.70;99.90;;;;;;5036128;28;20253;-93
2021/09/25 08:19:27;;;;;;;4.23;2.37;;;19.80;99.90;;;;;;5019197;28;20276;-93
2021/09/25 08:21:53;;;;;;;4.83;3.03;;;19.80;99.90;;;;;;5001260;28;20187;-95
2021/09/25 08:24:19;;;;;;;3.73;2.10;;;19.80;99.90;;;;;;5004414;28;20278;-94
2021/09/25 08:26:45;;;;;;;3.70;2.50;;;19.90;99.90;;;;;;5020771;28;20229;-95
2021/09/25 08:29:10;;;;;;;3.87;2.20;;;20.00;99.90;;;;;;4987778;28;21056;-94
2021/09/25 08:31:36;;;;;;;9.37;1.90;;;20.00;99.90;;;;;;4988161;28;20226;-94
2021/09/25 08:34:02;;;;;;;3.20;1.80;;;19.90;99.90;;;;;;5021686;28;20216;-93
2021/09/25 08:36:28;;;;;;;5.23;2.40;;;19.90;99.90;;;;;;4998727;28;20187;-91
2021/09/25 08:38:54;;;;;;;6.57;1.93;;;19.90;99.90;;;;;;5004155;28;20711;-94
2021/09/25 08:41:20;;;;;;;5.83;2.17;;;19.80;99.90;;;;;;5020235;28;20229;-94
2021/09/25 08:43:46;;;;;;;3.47;2.20;;;20.00;99.90;;;;;;5018942;28;20219;-93
2021/09/25 08:46:14;;;;;;;5.63;2.03;;;20.10;99.90;;;;;;5017734;28;20624;-93
2021/09/25 08:48:40;;;;;;;5.70;2.20;;;20.20;99.90;;;;;;5019830;28;20241;-92
2021/09/25 08:51:07;;;;;;;2.30;1.77;;;20.30;99.90;;;;;;5034177;28;20218;-94
2021/09/25 08:53:33;;;;;;;6.27;2.10;;;20.40;99.90;;;;;;5018899;28;20234;-95
2021/09/25 08:55:58;;;;;;;4.13;2.20;;;20.70;99.90;;;;;;5035489;28;20743;-94
2021/09/25 08:58:24;;;;;;;2.50;2.17;;;20.90;99.90;;;;;;5034914;28;20250;-95
2021/09/25 09:00:52;;;;;;;2.23;1.90;;;21.00;99.90;;;;;;5002327;28;20191;-94
2021/09/25 09:03:29;;;;;;;5.60;1.83;;;21.00;99.90;;;;;;5013485;28;20176;-95
2021/09/25 09:06:15;;;;;;;1.67;1.50;;;21.30;99.90;;;;;;5034989;28;20218;-94
2021/09/25 09:08:44;;;;;;;4.40;2.30;;;21.30;99.90;;;;;;5001718;28;20220;-94
2021/09/25 09:11:10;;;;;;;5.83;1.97;;;21.60;99.90;;;;;;5033431;28;20665;-95
2021/09/25 09:13:39;;;;;;;3.63;2.23;;;21.50;99.90;;;;;;4986583;28;20238;-93
2021/09/25 09:16:07;;;;;;;3.53;1.83;;;21.60;99.90;;;;;;5034801;28;20206;-93
2021/09/25 09:18:39;;;;;;;3.37;2.47;;;21.70;99.90;;;;;;5001520;28;20683;-93
2021/09/25 09:21:12;;;;;;;4.17;2.10;;;21.70;99.90;;;;;;5001271;28;20239;-93
2021/09/25 09:23:43;;;;;;;4.57;2.07;;;22.00;99.90;;;;;;5034896;28;20672;-94
2021/09/25 09:26:12;;;;;;;2.93;1.80;;;22.50;99.90;;;;;;5033854;28;20234;-94
2021/09/25 09:28:39;;;;;;;2.20;1.80;;;22.80;99.90;;;;;;5002347;28;20238;-95
2021/09/25 09:31:06;;;;;;;5.03;1.50;;;22.70;99.90;;;;;;5028307;28;20188;-94
2021/09/25 09:33:37;;;;;;;3.67;2.30;;;22.60;99.90;;;;;;4993240;28;20226;-91
2021/09/25 09:36:36;;;;;;;2.20;1.60;;;22.40;99.90;;;;;;5030624;28;20226;-93
2021/09/25 09:39:17;;;;;;;2.17;1.43;;;22.30;99.90;;;;;;5033113;28;20322;-94
2021/09/25 09:41:46;;;;;;;2.57;1.60;;;22.30;99.90;;;;;;4998245;28;20230;-94
2021/09/25 09:44:20;;;;;;;2.43;1.70;;;22.50;99.90;;;;;;5032167;28;20222;-94
2021/09/25 09:46:53;;;;;;;4.60;1.93;;;22.50;99.90;;;;;;5031774;28;20227;-93
2021/09/25 09:49:24;;;;;;;8.27;1.73;;;22.50;99.90;;;;;;5032542;28;20226;-92
2021/09/25 09:51:53;;;;;;;2.70;1.40;;;22.60;99.90;;;;;;5001546;28;20274;-94
2021/09/25 09:54:26;;;;;;;2.00;1.80;;;22.70;99.90;;;;;;5036206;28;20285;-93
2021/09/25 09:56:54;;;;;;;2.97;2.17;;;22.60;99.90;;;;;;5009889;28;20219;-93
2021/09/25 09:59:21;;;;;;;3.90;1.60;;;22.50;99.90;;;;;;5033811;28;20219;-92
2021/09/25 10:01:48;;;;;;;3.23;1.37;;;22.30;99.90;;;;;;5018934;28;20603;-90
2021/09/25 10:04:15;;;;;;;1.93;1.57;;;22.50;99.90;;;;;;5011575;28;20234;-91
2021/09/25 10:06:41;;;;;;;3.37;1.70;;;22.40;99.90;;;;;;5035832;28;20203;-91
2021/09/25 10:09:10;;;;;;;5.37;1.40;;;22.40;99.90;;;;;;4985731;28;20576;-91
2021/09/25 10:11:38;;;;;;;2.53;1.60;;;22.50;99.90;;;;;;5036722;28;20216;-93
2021/09/25 10:14:05;;;;;;;1.63;1.40;;;22.40;99.90;;;;;;5033837;28;20327;-92
2021/09/25 10:16:32;;;;;;;3.30;1.37;;;22.00;99.90;;;;;;5033898;28;20219;-92
2021/09/25 10:19:01;;;;;;;4.23;1.87;;;21.90;99.90;;;;;;5034205;28;20202;-92
2021/09/25 10:21:29;;;;;;;1.50;1.40;;;21.80;99.90;;;;;;4999606;28;20188;-92
2021/09/25 10:24:26;;;;;;;2.40;1.50;;;21.60;99.90;;;;;;5000893;28;20544;-93
2021/09/25 10:26:54;;;;;;;2.70;1.43;;;21.40;99.90;;;;;;5010475;28;20215;-93
2021/09/25 10:29:22;;;;;;;2.70;1.70;;;21.50;99.90;;;;;;4997413;28;20752;-94
2021/09/25 10:31:49;;;;;;;1.37;1.13;;;21.70;99.90;;;;;;4995189;28;20215;-90
2021/09/25 10:34:17;;;;;;;2.97;1.87;;;21.60;99.90;;;;;;4980567;28;20243;-94
2021/09/25 10:36:50;;;;;;;2.37;1.60;;;21.60;99.90;;;;;;5030390;28;20227;-94
2021/09/25 10:39:29;;;;;;;7.20;1.77;;;21.50;99.90;;;;;;5006997;28;20226;-91
2021/09/25 10:42:15;;;;;;;7.00;1.90;;;21.40;99.90;;;;;;5005734;28;20672;-94
2021/09/25 10:44:52;;;;;;;2.97;2.17;;;21.40;99.90;;;;;;5007045;28;20288;-92
2021/09/25 10:47:20;;;;;;;2.23;1.50;;;21.40;99.90;;;;;;4997588;28;20210;-93
2021/09/25 10:49:54;;;;;;;4.83;1.80;;;21.20;99.90;;;;;;5031158;28;20212;-91
2021/09/25 10:52:23;;;;;;;2.50;1.57;;;20.90;99.90;;;;;;5030816;28;20274;-92
2021/09/25 10:55:25;;;;;;;3.73;2.20;;;20.90;99.90;;;;;;5031880;28;20255;-91
2021/09/25 10:58:21;;;;;;;1.70;1.60;;;20.90;99.90;;;;;;5011696;28;20198;-92
2021/09/25 11:00:47;;;;;;;2.93;1.77;;;20.80;99.90;;;;;;5034598;28;20203;-95
2021/09/25 11:03:41;;;;;;;11.20;3.53;;;20.80;99.90;;;;;;5036902;28;20211;-93
2021/09/25 11:06:11;;;;;;;4.13;2.10;;;20.90;99.90;;;;;;5034231;28;20218;-93
2021/09/25 11:08:46;;;;;;;2.97;1.53;;;21.00;99.90;;;;;;5003356;28;20306;-92
2021/09/25 11:11:14;;;;;;;2.83;1.83;;;21.00;99.90;;;;;;5003647;28;20301;-91
2021/09/25 11:14:04;;;;;;;2.67;2.27;;;21.20;99.90;;;;;;5003166;28;20249;-94
2021/09/25 11:16:47;;;;;;;5.33;2.30;;;21.40;99.90;;;;;;5035827;28;20385;-93
2021/09/25 11:19:21;;;;;;;3.97;1.90;;;21.50;99.90;;;;;;5002548;28;20232;-95
2021/09/25 11:22:10;;;;;;;4.73;2.83;;;21.70;99.90;;;;;;5015135;28;20190;-93
2021/09/25 11:24:37;;;;;;;3.33;1.80;;;21.90;99.90;;;;;;5023239;28;20432;-93
2021/09/25 11:27:07;;;;;;;4.10;2.40;;;22.30;99.90;;;;;;5006009;28;20212;-95
2021/09/25 11:29:33;;;;;;;2.50;2.30;;;22.60;99.90;;;;;;5004637;28;20215;-96
2021/09/25 11:32:07;;;;;;;6.17;2.70;;;22.70;99.90;;;;;;5020723;28;20223;-93
2021/09/25 11:34:34;;;;;;;4.72;2.28;;;22.80;99.90;;;;;;5020378;28;20266;-91
2021/09/25 11:37:03;;;;;;;2.40;1.93;;;22.70;99.90;;;;;;5036113;28;20222;-90
2021/09/25 11:39:43;;;;;;;7.00;2.90;;;22.70;99.90;;;;;;5037165;28;20184;-93
2021/09/25 11:42:13;;;;;;;3.37;2.07;;;22.80;99.90;;;;;;5015735;28;20242;-96
2021/09/25 11:44:45;;;;;;;2.53;1.80;;;22.90;99.90;;;;;;5036658;28;20223;-93
2021/09/25 11:47:19;;;;;;;3.90;1.80;;;22.80;99.90;;;;;;5005069;28;20229;-93
2021/09/25 11:49:46;;;;;;;5.50;2.17;;;22.80;99.90;;;;;;5006101;28;20231;-95
2021/09/25 11:52:12;;;;;;;3.00;1.50;;;22.50;99.90;;;;;;5003897;28;20215;-91
2021/09/25 11:54:38;;;;;;;5.25;2.58;;;22.60;99.90;;;;;;5022099;28;20245;-91
2021/09/25 11:57:12;;;;;;;2.70;1.70;;;22.70;99.90;;;;;;4987978;28;20567;-92
2021/09/25 11:59:38;;;;;;;1.90;1.60;;;22.60;99.90;;;;;;5006200;28;20696;-93
2021/09/25 12:02:04;;;;;;;3.10;2.07;;;22.70;99.90;;;;;;5005384;28;20219;-95
2021/09/25 12:04:40;;;;;;;3.73;1.80;;;22.80;99.90;;;;;;4986252;28;20249;-95
2021/09/25 12:07:07;;;;;;;6.30;1.63;;;22.80;99.90;;;;;;5004998;28;20183;-96
2021/09/25 12:09:45;;;;;;;2.90;2.33;;;22.60;99.90;;;;;;5041804;28;20194;-94
2021/09/25 12:12:13;;;;;;;4.47;1.50;;;22.70;99.90;;;;;;5004213;28;20219;-96
2021/09/25 12:14:44;;;;;;;1.40;1.30;;;22.70;99.90;;;;;;5037542;28;20701;-96
2021/09/25 12:17:19;;;;;;;4.77;2.20;;;22.70;99.90;;;;;;5004605;28;20222;-96
2021/09/25 12:19:46;;;;;;;3.57;2.00;;;22.60;99.90;;;;;;5038882;28;20218;-96
2021/09/25 12:22:28;;;;;;;1.93;1.50;;;22.50;99.90;;;;;;5007976;28;20306;-95
2021/09/25 12:24:55;;;;;;;3.00;1.50;;;22.30;99.90;;;;;;5038782;28;20198;-95
2021/09/25 12:27:30;;;;;;;1.80;1.70;;;22.30;99.90;;;;;;5001314;28;20219;-94
2021/09/25 12:30:06;;;;;;;4.73;1.70;;;22.30;99.90;;;;;;5006485;28;20219;-92
2021/09/25 12:32:32;;;;;;;4.03;1.75;;;22.20;99.90;;;;;;5036410;28;20214;-92
2021/09/25 12:34:58;;;;;;;4.80;2.20;;;22.20;99.90;;;;;;5020909;28;20662;-94
2021/09/25 12:37:24;;;;;;;5.07;1.87;;;22.20;99.90;;;;;;4989708;28;20302;-96
2021/09/25 12:39:50;;;;;;;2.80;1.90;;;22.30;99.90;;;;;;4989720;28;20206;-94
2021/09/25 12:42:26;;;;;;;4.43;2.00;;;22.30;99.90;;;;;;5019200;28;20575;-92
2021/09/25 12:44:54;;;;;;;9.13;2.73;;;22.30;99.90;;;;;;5004945;28;20211;-94
2021/09/25 12:47:31;;;;;;;4.07;1.97;;;22.40;99.90;;;;;;5035595;28;20216;-94
2021/09/25 12:50:16;;;;;;;3.30;1.53;;;22.40;99.90;;;;;;5019560;28;20222;-93